KHRO/HRO METAR and TAF weather

Enter ICAO airport designator
Station Type Date Time Source
KHRO METAR 2021/04/14 19:53 UTC NOAA

KHRO 141953Z AUTO 04006KT 10SM OVC060 16/01 A3015 RMK AO2 SLP209 T01560011 PWINO


Station Type Date Time Source
KHRO Decoded METAR 2021/04/14 19:53 UTC NOAA

HARRISON BOONE COUNTY AIRPORT , AR, United States (KHRO) 36-16N 093-09W 417M
Apr 14, 2021 - 03:53 PM EDT / 2021.04.14 1953 UTC
Wind: from the NE (040 degrees) at 7 MPH (6 KT):0
Visibility: 10 mile(s):0
Sky conditions: overcast
Temperature: 60.1 F (15.6 C)
Dew Point: 34.0 F (1.1 C)
Relative Humidity: 37%
Pressure (altimeter): 30.15 in. Hg (1020 hPa)
ob: KHRO 141953Z AUTO 04006KT 10SM OVC060 16/01 A3015 RMK AO2 SLP209 T01560011 PWINO
cycle: 20

Station Type Date Time Source
KHRO TAF 2021/04/14 18:33 UTC NOAA

TAF KHRO 141730Z 1418/1518 04007KT P6SM BKN050
FM142000 04007KT P6SM SCT030 BKN060
FM150000 34006KT P6SM BKN100
FM151400 02008KT P6SM SCT100

Example: see airport list